To NAV CANADA Home Page Login to a new session Search on AWWS site Disclaimer Vers la page française équivalente Tips FAQ What's new on the site To the Forecasts and Observations / NOTAM section To "File a Flight Plan" website Publications and other links Update of the User's profile FIC Telephone Numbers My Weather Data Folder Route Weather Data Regional Weather Data Local Weather Data To the Forecasts and Observations / NOTAM section
Request Generated 10/19/2018 at 15:39:48 UTC . Weather information available at that time is displayed.

METAR/TAF

FORT ST. JOHN/BC    

METAR CYXJ 191500Z 10004KT 30SM BKN150 BKN220 00/M04 A3026 RMK AC6CI1 SLP280=
METAR CYXJ 191400Z 01004KT 340V100 30SM BKN150 BKN220 01/M04 A3026 RMK AC5CI1 SLP279=
METAR CYXJ 191300Z VRB04KT 15SM SCT160 M00/M04 A3026 RMK AC3 SLP279=

TAF CYXJ 191238Z 1913/2001 26005KT P6SM SCT150 BKN180
BECMG 1919/1921 16012KT
RMK NXT FCST BY 191900Z=
Your time UTC time
Weather data provided by Environment Canada and NAV CANADA